Time,TemperatureF,DewpointF,PressureIn,WindDirection,WindDirectionDegrees,WindSpeedMPH,WindSpeedGustMPH,Humidity,HourlyPrecipIn,Conditions,Clouds,dailyrainin,SolarRadiationWatts/m^2,SoftwareType,DateUTC
2013-09-06 00:00:00,82.3,77.0,29.98,ESE,112,0.0,1.0,84,0.00,,,0.00,0.00,VWS V14.00,2013-09-06 05:00:00,
2013-09-06 00:15:00,82.0,76.7,29.98,ESE,112,0.0,0.0,84,0.00,,,0.00,0.00,VWS V14.00,2013-09-06 05:15:00,
2013-09-06 00:30:00,81.9,76.9,29.98,ESE,112,0.0,0.0,85,0.00,,,0.00,0.00,VWS V14.00,2013-09-06 05:30:00,
2013-09-06 00:45:00,82.2,77.2,29.97,ESE,112,0.0,3.0,85,0.00,,,0.00,0.00,VWS V14.00,2013-09-06 05:45:00,
2013-09-06 01:00:00,82.6,77.3,29.97,ESE,112,0.0,2.0,84,0.00,,,0.00,0.00,VWS V14.00,2013-09-06 06:00:00,
2013-09-06 01:15:00,82.5,77.2,29.97,ESE,112,0.0,0.0,84,0.00,,,0.00,0.00,VWS V14.00,2013-09-06 06:15:00,
2013-09-06 01:30:00,82.1,77.2,29.97,ESE,112,0.0,2.0,85,0.00,,,0.00,0.00,VWS V14.00,2013-09-06 06:30:00,
2013-09-06 01:45:00,81.8,76.8,29.96,ESE,112,0.0,0.0,85,0.00,,,0.00,0.00,VWS V14.00,2013-09-06 06:45:00,
2013-09-06 02:00:00,81.5,76.9,29.96,ESE,112,0.0,0.0,86,0.00,,,0.00,0.00,VWS V14.00,2013-09-06 07:00:00,
2013-09-06 02:15:00,81.1,76.5,29.95,ESE,112,0.0,0.0,86,0.00,,,0.00,0.00,VWS V14.00,2013-09-06 07:15:00,
2013-09-06 02:30:00,80.7,76.5,29.95,ESE,112,0.0,0.0,87,0.00,,,0.00,0.00,VWS V14.00,2013-09-06 07:30:00,
2013-09-06 02:45:00,80.4,76.2,29.95,ESE,112,0.0,0.0,87,0.00,,,0.00,0.00,VWS V14.00,2013-09-06 07:45:00,
2013-09-06 03:00:00,79.9,76.0,29.96,ESE,112,0.0,0.0,88,0.00,,,0.00,0.00,VWS V14.00,2013-09-06 08:00:00,
2013-09-06 03:15:00,79.5,76.0,29.96,ESE,112,0.0,3.0,89,0.00,,,0.00,0.00,VWS V14.00,2013-09-06 08:15:00,
2013-09-06 03:30:00,79.2,76.0,29.96,ESE,112,0.0,1.0,90,0.00,,,0.00,0.00,VWS V14.00,2013-09-06 08:30:00,
2013-09-06 03:45:00,78.9,75.7,29.96,ESE,112,0.0,2.0,90,0.00,,,0.00,0.00,VWS V14.00,2013-09-06 08:45:00,
2013-09-06 04:00:00,78.6,75.8,29.96,ESE,112,0.0,2.0,91,0.00,,,0.00,0.00,VWS V14.00,2013-09-06 09:00:00,
2013-09-06 04:15:00,78.5,75.7,29.96,ESE,112,0.0,1.0,91,0.00,,,0.00,0.00,VWS V14.00,2013-09-06 09:15:00,
2013-09-06 04:30:00,78.3,75.5,29.95,East,90,0.0,4.0,91,0.00,,,0.00,0.00,VWS V14.00,2013-09-06 09:30:00,
2013-09-06 04:45:00,78.1,75.3,29.95,NNW,338,2.0,5.0,91,0.00,,,0.00,0.00,VWS V14.00,2013-09-06 09:45:00,
2013-09-06 05:00:00,78.1,75.3,29.95,NNW,338,2.0,0.0,91,0.00,,,0.00,0.00,VWS V14.00,2013-09-06 10:00:00,
2013-09-06 05:15:00,78.1,75.3,29.95,NNW,338,2.0,0.0,91,0.00,,,0.00,0.00,VWS V14.00,2013-09-06 10:15:00,
2013-09-06 05:30:00,78.1,75.3,29.95,NNW,338,2.0,0.0,91,0.00,,,0.00,0.00,VWS V14.00,2013-09-06 10:30:00,
2013-09-06 05:45:00,78.1,75.3,29.95,NNW,338,2.0,0.0,91,0.00,,,0.00,0.00,VWS V14.00,2013-09-06 10:45:00,
2013-09-06 06:00:00,78.1,75.3,29.95,NNW,338,2.0,0.0,91,0.00,,,0.00,0.00,VWS V14.00,2013-09-06 11:00:00,
2013-09-06 06:15:00,78.1,75.3,29.95,NNW,338,2.0,0.0,91,0.00,,,0.00,0.00,VWS V14.00,2013-09-06 11:15:00,
2013-09-06 06:30:00,78.1,75.3,29.96,NNW,338,2.0,0.0,91,0.00,,,0.00,0.00,VWS V14.00,2013-09-06 11:30:00,
2013-09-06 06:45:00,78.1,75.3,29.96,NNW,338,2.0,0.0,91,0.00,,,0.00,0.00,VWS V14.00,2013-09-06 11:45:00,
2013-09-06 07:00:00,78.1,75.3,29.96,NNW,338,2.0,0.0,91,0.00,,,0.00,0.00,VWS V14.00,2013-09-06 12:00:00,
2013-09-06 07:15:00,78.1,75.3,29.97,NNW,338,2.0,0.0,91,0.00,,,0.00,0.00,VWS V14.00,2013-09-06 12:15:00,
2013-09-06 07:30:00,78.1,75.3,29.97,NNW,338,2.0,0.0,91,0.00,,,0.00,0.00,VWS V14.00,2013-09-06 12:30:00,
2013-09-06 07:45:00,78.1,75.3,29.97,NNW,338,2.0,0.0,91,0.00,,,0.00,0.00,VWS V14.00,2013-09-06 12:45:00,
2013-09-06 08:00:00,78.0,75.5,29.98,NNE,22,1.0,4.0,92,0.00,,,0.00,37.00,VWS V14.00,2013-09-06 13:00:00,
2013-09-06 08:15:00,78.8,75.9,29.99,North,0,2.0,6.0,91,0.00,,,0.00,93.00,VWS V14.00,2013-09-06 13:15:00,
2013-09-06 08:30:00,80.0,76.8,29.98,North,0,2.0,5.0,90,0.00,,,0.00,237.00,VWS V14.00,2013-09-06 13:30:00,
2013-09-06 08:51:00,81.8,77.6,29.99,NNW,338,1.0,5.0,87,0.00,,,0.00,286.00,VWS V14.00,2013-09-06 13:51:00,
2013-09-06 09:15:00,85.1,79.0,29.99,NE,45,2.0,5.0,82,0.00,,,0.00,410.00,VWS V14.00,2013-09-06 14:15:00,
2013-09-06 09:30:00,85.4,78.5,29.99,NNE,22,3.0,10.0,80,0.00,,,0.00,484.00,VWS V14.00,2013-09-06 14:30:00,
2013-09-06 09:45:00,86.2,78.5,30.00,NNE,22,3.0,10.0,78,0.00,,,0.00,567.00,VWS V14.00,2013-09-06 14:45:00,
2013-09-06 10:00:00,87.2,79.1,30.00,NNE,22,3.0,7.0,77,0.00,,,0.00,651.00,VWS V14.00,2013-09-06 15:00:00,
2013-09-06 10:15:00,88.6,79.2,30.00,NE,45,3.0,6.0,74,0.00,,,0.00,766.00,VWS V14.00,2013-09-06 15:15:00,
2013-09-06 10:30:00,88.5,78.3,30.00,ENE,68,3.0,9.0,72,0.00,,,0.00,784.00,VWS V14.00,2013-09-06 15:30:00,
2013-09-06 10:45:00,88.7,78.1,30.01,NE,45,3.0,9.0,71,0.00,,,0.00,827.00,VWS V14.00,2013-09-06 15:45:00,
2013-09-06 11:00:00,89.7,78.2,30.00,NE,45,2.0,6.0,69,0.00,,,0.00,852.00,VWS V14.00,2013-09-06 16:00:00,
2013-09-06 11:15:00,89.3,77.8,30.00,North,0,3.0,10.0,69,0.00,,,0.00,542.00,VWS V14.00,2013-09-06 16:15:00,
2013-09-06 11:30:00,88.9,77.4,29.99,NNE,22,3.0,9.0,69,0.00,,,0.00,628.00,VWS V14.00,2013-09-06 16:30:00,
2013-09-06 11:45:00,89.7,77.3,29.99,NE,45,2.0,5.0,67,0.00,,,0.00,685.00,VWS V14.00,2013-09-06 16:45:00,
2013-09-06 12:00:00,90.6,77.7,29.99,NNW,338,2.0,9.0,66,0.00,,,0.00,823.00,VWS V14.00,2013-09-06 17:00:00,
2013-09-06 12:15:00,89.5,76.7,29.99,East,90,2.0,6.0,66,0.00,,,0.00,349.00,VWS V14.00,2013-09-06 17:15:00,
2013-09-06 12:30:00,89.7,76.4,29.99,ENE,68,2.0,9.0,65,0.00,,,0.00,439.00,VWS V14.00,2013-09-06 17:30:00,
2013-09-06 12:45:00,90.2,77.3,29.98,NE,45,2.0,7.0,66,0.00,,,0.00,419.00,VWS V14.00,2013-09-06 17:45:00,
2013-09-06 13:00:00,90.6,76.3,29.97,East,90,2.0,9.0,63,0.00,,,0.00,452.00,VWS V14.00,2013-09-06 18:00:00,
2013-09-06 13:15:00,91.7,76.3,29.97,ESE,112,2.0,7.0,61,0.00,,,0.00,986.00,VWS V14.00,2013-09-06 18:15:00,
2013-09-06 13:30:00,91.4,77.0,29.96,East,90,2.0,9.0,63,0.00,,,0.00,324.00,VWS V14.00,2013-09-06 18:30:00,
2013-09-06 13:45:00,90.4,78.4,29.96,East,90,3.0,10.0,68,0.00,,,0.00,229.00,VWS V14.00,2013-09-06 18:45:00,
2013-09-06 14:00:00,87.8,77.7,29.96,East,90,5.0,11.0,72,0.00,,,0.00,295.00,VWS V14.00,2013-09-06 19:00:00,
2013-09-06 14:15:00,87.0,77.3,29.95,ESE,112,4.0,10.0,73,0.00,,,0.00,331.00,VWS V14.00,2013-09-06 19:15:00,
2013-09-06 14:30:00,89.5,77.1,29.95,ESE,112,4.0,10.0,67,0.00,,,0.00,721.00,VWS V14.00,2013-09-06 19:30:00,
2013-09-06 14:45:00,87.9,76.5,29.93,East,90,2.0,10.0,69,0.00,,,0.00,194.00,VWS V14.00,2013-09-06 19:45:00,
2013-09-06 15:00:00,88.4,76.5,29.93,East,90,2.0,7.0,68,0.00,,,0.00,414.00,VWS V14.00,2013-09-06 20:00:00,
2013-09-06 15:15:00,90.0,76.7,29.92,East,90,3.0,8.0,65,0.00,,,0.00,866.00,VWS V14.00,2013-09-06 20:15:00,
2013-09-06 15:30:00,90.5,77.6,29.91,East,90,3.0,8.0,66,0.00,,,0.00,850.00,VWS V14.00,2013-09-06 20:30:00,
2013-09-06 15:45:00,91.0,78.5,29.91,East,90,3.0,10.0,67,0.00,,,0.00,838.00,VWS V14.00,2013-09-06 20:45:00,
2013-09-06 16:00:00,90.0,79.3,29.91,East,90,4.0,11.0,71,0.00,,,0.00,838.00,VWS V14.00,2013-09-06 21:00:00,
2013-09-06 16:15:00,89.3,78.2,29.90,East,90,4.0,9.0,70,0.00,,,0.00,626.00,VWS V14.00,2013-09-06 21:15:00,
2013-09-06 16:30:00,88.5,77.9,29.90,South,180,3.0,7.0,71,0.00,,,0.00,451.00,VWS V14.00,2013-09-06 21:30:00,
2013-09-06 16:45:00,89.2,78.1,29.89,ESE,112,4.0,12.0,70,0.00,,,0.00,587.00,VWS V14.00,2013-09-06 21:45:00,
2013-09-06 17:00:00,89.2,78.1,29.90,East,90,4.0,11.0,70,0.00,,,0.00,558.00,VWS V14.00,2013-09-06 22:00:00,
2013-09-06 17:15:00,88.7,77.7,29.90,ESE,112,4.0,9.0,70,0.00,,,0.00,457.00,VWS V14.00,2013-09-06 22:15:00,
2013-09-06 17:30:00,88.9,77.8,29.90,ESE,112,4.0,11.0,70,0.00,,,0.00,468.00,VWS V14.00,2013-09-06 22:30:00,
2013-09-06 17:45:00,88.2,78.0,29.90,ESE,112,3.0,12.0,72,0.00,,,0.00,313.00,VWS V14.00,2013-09-06 22:45:00,
2013-09-06 18:00:00,87.3,77.2,29.89,East,90,4.0,11.0,72,0.00,,,0.00,228.00,VWS V14.00,2013-09-06 23:00:00,
2013-09-06 18:15:00,86.9,77.6,29.90,East,90,3.0,10.0,74,0.00,,,0.00,156.00,VWS V14.00,2013-09-06 23:15:00,
2013-09-06 18:30:00,85.6,76.4,29.90,ESE,112,4.0,11.0,74,0.00,,,0.00,59.00,VWS V14.00,2013-09-06 23:30:00,
2013-09-06 18:45:00,85.3,77.3,29.90,ESE,112,3.0,10.0,77,0.00,,,0.00,37.00,VWS V14.00,2013-09-06 23:45:00,
2013-09-06 19:08:00,85.0,77.0,29.90,East,90,3.0,8.0,77,0.00,,,0.00,31.00,VWS V14.00,2013-09-07 00:08:00,
2013-09-06 19:15:00,84.8,77.2,29.91,East,90,3.0,7.0,78,0.00,,,0.00,21.00,VWS V14.00,2013-09-07 00:15:00,
2013-09-06 19:30:00,84.4,77.2,29.91,ESE,112,2.0,7.0,79,0.00,,,0.00,11.00,VWS V14.00,2013-09-07 00:30:00,
2013-09-06 19:45:00,84.2,76.6,29.91,East,90,2.0,7.0,78,0.00,,,0.00,1.00,VWS V14.00,2013-09-07 00:45:00,
2013-09-06 20:00:00,83.8,76.6,29.91,ESE,112,2.0,6.0,79,0.00,,,0.00,0.00,VWS V14.00,2013-09-07 01:00:00,
2013-09-06 20:15:00,83.2,76.4,29.90,East,90,1.0,4.0,80,0.00,,,0.00,0.00,VWS V14.00,2013-09-07 01:15:00,
2013-09-06 20:30:00,83.0,76.6,29.90,East,90,1.0,5.0,81,0.00,,,0.00,0.00,VWS V14.00,2013-09-07 01:30:00,
2013-09-06 20:45:00,83.0,76.6,29.90,ESE,112,1.0,5.0,81,0.00,,,0.00,0.00,VWS V14.00,2013-09-07 01:45:00,
2013-09-06 21:00:00,83.0,76.6,29.90,ESE,112,2.0,6.0,81,0.00,,,0.00,0.00,VWS V14.00,2013-09-07 02:00:00,
2013-09-06 21:15:00,83.0,76.9,29.90,East,90,1.0,5.0,82,0.00,,,0.00,0.00,VWS V14.00,2013-09-07 02:15:00,
2013-09-06 21:30:00,82.8,77.1,29.90,East,90,1.0,5.0,83,0.00,,,0.00,0.00,VWS V14.00,2013-09-07 02:30:00,
2013-09-06 21:45:00,82.5,76.8,29.91,East,90,1.0,3.0,83,0.00,,,0.00,0.00,VWS V14.00,2013-09-07 02:45:00,
2013-09-06 22:00:00,82.4,77.1,29.91,East,90,1.0,4.0,84,0.00,,,0.00,0.00,VWS V14.00,2013-09-07 03:00:00,
2013-09-06 22:15:00,82.2,76.5,29.92,East,90,0.0,2.0,83,0.00,,,0.00,0.00,VWS V14.00,2013-09-07 03:15:00,
2013-09-06 22:30:00,82.0,76.7,29.92,East,90,0.0,1.0,84,0.00,,,0.00,0.00,VWS V14.00,2013-09-07 03:30:00,
2013-09-06 22:45:00,81.9,76.6,29.91,East,90,0.0,1.0,84,0.00,,,0.00,0.00,VWS V14.00,2013-09-07 03:45:00,
2013-09-06 23:00:00,81.6,76.7,29.91,East,90,0.0,2.0,85,0.00,,,0.00,0.00,VWS V14.00,2013-09-07 04:00:00,
2013-09-06 23:15:00,81.4,76.5,29.90,East,90,1.0,3.0,85,0.00,,,0.00,0.00,VWS V14.00,2013-09-07 04:15:00,
2013-09-06 23:30:00,81.4,76.5,29.90,East,90,0.0,4.0,85,0.00,,,0.00,0.00,VWS V14.00,2013-09-07 04:30:00,
2013-09-06 23:45:00,81.9,76.6,29.90,ESE,112,1.0,5.0,84,0.00,,,0.00,0.00,VWS V14.00,2013-09-07 04:45:00,